Ana Sayfa
METAR-TAF:

METAR-TAF

Havaalanları :

Florence, Güney Carolina, Amerika Birleşik Devletleri

Enlem: 34-11-16N, Boylam: 079-43-51W, yükseklik: 45 m

Güncel hava durumu gözlemi

Rapor saat 12:53 UTC de 17 dakika önce yapıldı.
Rüzgar doğu/güneydoğudan 5 kt
Sıcaklık 27°C
Nem 74%
Basınç 1021 hPa
Görüş mesafesi: 16.1 km
Açık gökyüzü

METAR: KFLO 251253Z 12005KT 10SM CLR 27/22 A3014 RMK AO2 SLP202 T02670222

Saat: 09:10 (13:10 UTC)

Tahmin

Rapor saat 11:20 UTC de 1 saat ve 50 dakika önce yapıldı.
Ayın 25'si saat 12 UTC'den ayın 26'si saat 12 UTC'ye kadar geçerli Tahmin
Rüzgar değişken yönden 2 kt
Görüş mesafesi: 10 km
Açık gökyüzü
Ayın 25'si saat 1600 UTC'den
Rüzgar doğudan 4 kt
Görüş mesafesi: 10 km
15000 ft yükseklikte az bulutlu
Ayın 25'si saat 2000 UTC'den
Rüzgar güneydoğudan 8 kt ve 16 kt'a kadar ani rüzgarlar
Görüş mesafesi: 10 km
6000 ft yükseklikte az bulutlu

TAF: KFLO 251120Z 2512/2612 VRB02KT P6SM SKC FM251600 10004KT P6SM FEW150 FM252000 14008G16KT P6SM FEW060

4.000'den fazla havaalanı için hava durumu gözlemleri ve tahminleri (METAR ve TAF raporları).

Kullanılabilir istasyonlar harita üzerinde sarı ve kırmızı noktalarla gösterilir.

İstasyonun adını görmek için fareyi noktanın üzerinde gezdirin.

Sonrasında hava gözlem ve tahminlerini görmek için tıklayın.

Haritayı değiştirmek için: yaklaştırmak için siyah artı işaretli yeşil düğmeye ve uzaklaştırmak için de eksi işaretli düğmeye hızla tıklayın; bitişik haritalar için yeşil okları kullanın.


METAR-TAF: